Terminal Aerodrome Forecast
Issued by NWS

Home | Current Version | Previous Version | Graphics & Text | Print | Product List | Glossary On
Versions: 1 2 3 4 5 6 7 8 9 10 11 12 13
000
FTUS43 KICT 291700
TAFCNU
TAF
KCNU 291720Z 2918/3018 VRB03KT P6SM FEW060
     FM300000 12004KT P6SM SKC
     FM301500 19012KT P6SM SCT200=

USA.gov is the U.S. government's official web portal to all federal, state and local government web resources and services.